sensor_id;sensor_type;location;lat;lon;timestamp;P1;durP1;ratioP1;P2;durP2;ratioP2
39728;SDS011;25402;42.004;23.088;2023-04-07T00:00:46;16.45;;;8.57;;
39728;SDS011;25402;42.004;23.088;2023-04-07T00:03:14;16.85;;;8.98;;
39728;SDS011;25402;42.004;23.088;2023-04-07T00:05:41;15.32;;;8.93;;
39728;SDS011;25402;42.004;23.088;2023-04-07T00:08:08;15.95;;;9.50;;
39728;SDS011;25402;42.004;23.088;2023-04-07T00:10:34;15.80;;;9.32;;
39728;SDS011;25402;42.004;23.088;2023-04-07T00:13:01;21.73;;;9.52;;
39728;SDS011;25402;42.004;23.088;2023-04-07T00:15:27;16.95;;;9.73;;
39728;SDS011;25402;42.004;23.088;2023-04-07T00:17:54;15.73;;;9.45;;
39728;SDS011;25402;42.004;23.088;2023-04-07T00:20:23;18.58;;;9.80;;
39728;SDS011;25402;42.004;23.088;2023-04-07T00:22:50;15.15;;;9.55;;
39728;SDS011;25402;42.004;23.088;2023-04-07T00:25:17;16.15;;;9.18;;
39728;SDS011;25402;42.004;23.088;2023-04-07T00:27:43;23.58;;;9.88;;
39728;SDS011;25402;42.004;23.088;2023-04-07T00:30:10;18.60;;;9.80;;
39728;SDS011;25402;42.004;23.088;2023-04-07T00:32:37;15.13;;;9.55;;
39728;SDS011;25402;42.004;23.088;2023-04-07T00:35:03;18.98;;;10.43;;
39728;SDS011;25402;42.004;23.088;2023-04-07T00:37:32;16.60;;;9.57;;
39728;SDS011;25402;42.004;23.088;2023-04-07T00:39:59;16.88;;;9.88;;
39728;SDS011;25402;42.004;23.088;2023-04-07T00:42:25;18.42;;;10.70;;
39728;SDS011;25402;42.004;23.088;2023-04-07T00:44:52;21.15;;;10.75;;
39728;SDS011;25402;42.004;23.088;2023-04-07T00:47:19;17.27;;;10.27;;
39728;SDS011;25402;42.004;23.088;2023-04-07T00:49:45;22.75;;;12.48;;
39728;SDS011;25402;42.004;23.088;2023-04-07T00:52:13;22.33;;;12.82;;
39728;SDS011;25402;42.004;23.088;2023-04-07T00:54:42;22.13;;;11.60;;
39728;SDS011;25402;42.004;23.088;2023-04-07T00:57:10;20.83;;;12.18;;
39728;SDS011;25402;42.004;23.088;2023-04-07T00:59:37;16.80;;;10.18;;
39728;SDS011;25402;42.004;23.088;2023-04-07T01:02:05;16.83;;;10.25;;
39728;SDS011;25402;42.004;23.088;2023-04-07T01:04:34;21.58;;;10.38;;
39728;SDS011;25402;42.004;23.088;2023-04-07T01:07:04;17.90;;;9.70;;
39728;SDS011;25402;42.004;23.088;2023-04-07T01:09:34;22.67;;;10.23;;
39728;SDS011;25402;42.004;23.088;2023-04-07T01:12:04;21.95;;;9.82;;
39728;SDS011;25402;42.004;23.088;2023-04-07T01:14:34;23.90;;;11.30;;
39728;SDS011;25402;42.004;23.088;2023-04-07T01:17:05;19.40;;;10.82;;
39728;SDS011;25402;42.004;23.088;2023-04-07T01:19:33;19.33;;;10.40;;
39728;SDS011;25402;42.004;23.088;2023-04-07T01:21:59;17.50;;;9.73;;
39728;SDS011;25402;42.004;23.088;2023-04-07T01:24:37;20.65;;;9.48;;
39728;SDS011;25402;42.004;23.088;2023-04-07T01:27:09;19.80;;;10.45;;
39728;SDS011;25402;42.004;23.088;2023-04-07T01:29:41;21.27;;;9.35;;
39728;SDS011;25402;42.004;23.088;2023-04-07T01:32:12;31.65;;;16.13;;
39728;SDS011;25402;42.004;23.088;2023-04-07T01:34:39;22.05;;;12.68;;
39728;SDS011;25402;42.004;23.088;2023-04-07T01:37:07;22.33;;;11.18;;
39728;SDS011;25402;42.004;23.088;2023-04-07T01:39:34;19.65;;;10.23;;
39728;SDS011;25402;42.004;23.088;2023-04-07T01:42:01;20.52;;;11.38;;
39728;SDS011;25402;42.004;23.088;2023-04-07T01:44:29;18.88;;;10.80;;
39728;SDS011;25402;42.004;23.088;2023-04-07T01:46:59;21.25;;;11.10;;
39728;SDS011;25402;42.004;23.088;2023-04-07T01:49:26;17.65;;;10.35;;
39728;SDS011;25402;42.004;23.088;2023-04-07T01:51:54;18.45;;;10.13;;
39728;SDS011;25402;42.004;23.088;2023-04-07T01:54:20;20.45;;;10.25;;
39728;SDS011;25402;42.004;23.088;2023-04-07T01:56:47;21.30;;;11.43;;
39728;SDS011;25402;42.004;23.088;2023-04-07T01:59:16;21.67;;;10.48;;
39728;SDS011;25402;42.004;23.088;2023-04-07T02:01:42;15.93;;;9.80;;
39728;SDS011;25402;42.004;23.088;2023-04-07T02:04:12;16.30;;;9.00;;
39728;SDS011;25402;42.004;23.088;2023-04-07T02:06:43;19.25;;;8.75;;
39728;SDS011;25402;42.004;23.088;2023-04-07T02:09:14;20.77;;;9.43;;
39728;SDS011;25402;42.004;23.088;2023-04-07T02:11:41;19.73;;;9.90;;
39728;SDS011;25402;42.004;23.088;2023-04-07T02:14:09;21.38;;;9.90;;
39728;SDS011;25402;42.004;23.088;2023-04-07T02:16:36;15.70;;;9.18;;
39728;SDS011;25402;42.004;23.088;2023-04-07T02:19:04;23.90;;;10.35;;
39728;SDS011;25402;42.004;23.088;2023-04-07T02:21:33;25.48;;;10.77;;
39728;SDS011;25402;42.004;23.088;2023-04-07T02:24:00;16.10;;;9.50;;
39728;SDS011;25402;42.004;23.088;2023-04-07T02:26:27;15.10;;;9.38;;
39728;SDS011;25402;42.004;23.088;2023-04-07T02:28:53;21.00;;;10.18;;
39728;SDS011;25402;42.004;23.088;2023-04-07T02:31:20;20.40;;;9.80;;
39728;SDS011;25402;42.004;23.088;2023-04-07T02:33:46;19.17;;;9.65;;
39728;SDS011;25402;42.004;23.088;2023-04-07T02:36:13;17.35;;;9.38;;
39728;SDS011;25402;42.004;23.088;2023-04-07T02:38:41;21.70;;;10.20;;
39728;SDS011;25402;42.004;23.088;2023-04-07T02:41:07;33.92;;;11.18;;
39728;SDS011;25402;42.004;23.088;2023-04-07T02:43:34;43.10;;;10.02;;
39728;SDS011;25402;42.004;23.088;2023-04-07T02:46:01;23.02;;;11.00;;
39728;SDS011;25402;42.004;23.088;2023-04-07T02:48:28;37.95;;;10.40;;
39728;SDS011;25402;42.004;23.088;2023-04-07T02:50:55;19.90;;;9.70;;
39728;SDS011;25402;42.004;23.088;2023-04-07T02:53:21;22.67;;;9.73;;
39728;SDS011;25402;42.004;23.088;2023-04-07T02:55:49;46.13;;;12.13;;
39728;SDS011;25402;42.004;23.088;2023-04-07T02:58:16;32.13;;;11.18;;
39728;SDS011;25402;42.004;23.088;2023-04-07T03:00:42;27.58;;;11.55;;
39728;SDS011;25402;42.004;23.088;2023-04-07T03:03:09;22.38;;;10.70;;
39728;SDS011;25402;42.004;23.088;2023-04-07T03:05:35;85.90;;;13.82;;
39728;SDS011;25402;42.004;23.088;2023-04-07T03:08:02;30.38;;;11.77;;
39728;SDS011;25402;42.004;23.088;2023-04-07T03:10:29;22.98;;;11.27;;
39728;SDS011;25402;42.004;23.088;2023-04-07T03:12:57;34.45;;;12.02;;
39728;SDS011;25402;42.004;23.088;2023-04-07T03:15:23;32.05;;;13.10;;
39728;SDS011;25402;42.004;23.088;2023-04-07T03:17:50;93.40;;;14.88;;
39728;SDS011;25402;42.004;23.088;2023-04-07T03:20:16;110.30;;;15.85;;
39728;SDS011;25402;42.004;23.088;2023-04-07T03:22:43;105.80;;;18.05;;
39728;SDS011;25402;42.004;23.088;2023-04-07T03:25:11;51.97;;;13.88;;
39728;SDS011;25402;42.004;23.088;2023-04-07T03:27:38;36.00;;;12.82;;
39728;SDS011;25402;42.004;23.088;2023-04-07T03:30:07;31.80;;;12.85;;
39728;SDS011;25402;42.004;23.088;2023-04-07T03:32:34;29.05;;;12.40;;
39728;SDS011;25402;42.004;23.088;2023-04-07T03:35:01;37.15;;;12.82;;
39728;SDS011;25402;42.004;23.088;2023-04-07T03:37:27;31.15;;;13.20;;
39728;SDS011;25402;42.004;23.088;2023-04-07T03:39:54;28.88;;;12.70;;
39728;SDS011;25402;42.004;23.088;2023-04-07T03:42:20;25.75;;;13.20;;
39728;SDS011;25402;42.004;23.088;2023-04-07T03:44:47;16.25;;;9.35;;
39728;SDS011;25402;42.004;23.088;2023-04-07T03:47:15;28.80;;;9.48;;
39728;SDS011;25402;42.004;23.088;2023-04-07T03:49:41;19.73;;;8.65;;
39728;SDS011;25402;42.004;23.088;2023-04-07T03:52:08;27.23;;;7.82;;
39728;SDS011;25402;42.004;23.088;2023-04-07T03:54:35;24.73;;;8.20;;
39728;SDS011;25402;42.004;23.088;2023-04-07T03:57:01;23.65;;;8.77;;
39728;SDS011;25402;42.004;23.088;2023-04-07T03:59:28;23.83;;;9.18;;
39728;SDS011;25402;42.004;23.088;2023-04-07T04:01:55;25.70;;;9.98;;
39728;SDS011;25402;42.004;23.088;2023-04-07T04:04:22;34.55;;;10.45;;
39728;SDS011;25402;42.004;23.088;2023-04-07T04:06:49;25.27;;;11.73;;
39728;SDS011;25402;42.004;23.088;2023-04-07T04:09:16;26.20;;;12.50;;
39728;SDS011;25402;42.004;23.088;2023-04-07T04:11:42;24.98;;;10.13;;
39728;SDS011;25402;42.004;23.088;2023-04-07T04:14:09;136.50;;;55.05;;
39728;SDS011;25402;42.004;23.088;2023-04-07T04:16:36;382.38;;;147.60;;
39728;SDS011;25402;42.004;23.088;2023-04-07T04:19:03;111.32;;;44.72;;
39728;SDS011;25402;42.004;23.088;2023-04-07T04:21:30;100.15;;;44.17;;
39728;SDS011;25402;42.004;23.088;2023-04-07T04:23:57;72.00;;;31.95;;
39728;SDS011;25402;42.004;23.088;2023-04-07T04:26:23;89.43;;;40.67;;
39728;SDS011;25402;42.004;23.088;2023-04-07T04:28:50;62.90;;;28.50;;
39728;SDS011;25402;42.004;23.088;2023-04-07T04:31:17;81.95;;;35.35;;
39728;SDS011;25402;42.004;23.088;2023-04-07T04:33:43;79.82;;;35.83;;
39728;SDS011;25402;42.004;23.088;2023-04-07T04:36:10;71.95;;;32.83;;
39728;SDS011;25402;42.004;23.088;2023-04-07T04:38:38;48.67;;;24.33;;
39728;SDS011;25402;42.004;23.088;2023-04-07T04:41:05;91.30;;;49.50;;
39728;SDS011;25402;42.004;23.088;2023-04-07T04:43:31;91.30;;;45.70;;
39728;SDS011;25402;42.004;23.088;2023-04-07T04:45:58;83.53;;;44.47;;
39728;SDS011;25402;42.004;23.088;2023-04-07T04:48:24;75.10;;;34.60;;
39728;SDS011;25402;42.004;23.088;2023-04-07T04:50:52;161.40;;;56.42;;
39728;SDS011;25402;42.004;23.088;2023-04-07T04:53:19;135.80;;;47.03;;
39728;SDS011;25402;42.004;23.088;2023-04-07T04:55:47;85.18;;;30.27;;
39728;SDS011;25402;42.004;23.088;2023-04-07T04:58:16;91.93;;;28.92;;
39728;SDS011;25402;42.004;23.088;2023-04-07T05:00:42;53.38;;;19.70;;
39728;SDS011;25402;42.004;23.088;2023-04-07T05:03:09;50.58;;;18.23;;
39728;SDS011;25402;42.004;23.088;2023-04-07T05:05:36;57.17;;;16.25;;
39728;SDS011;25402;42.004;23.088;2023-04-07T05:08:03;80.30;;;16.63;;
39728;SDS011;25402;42.004;23.088;2023-04-07T05:10:29;43.65;;;15.65;;
39728;SDS011;25402;42.004;23.088;2023-04-07T05:12:58;28.38;;;14.35;;
39728;SDS011;25402;42.004;23.088;2023-04-07T05:15:24;24.95;;;13.32;;
39728;SDS011;25402;42.004;23.088;2023-04-07T05:17:51;26.45;;;14.23;;
39728;SDS011;25402;42.004;23.088;2023-04-07T05:20:17;27.73;;;15.15;;
39728;SDS011;25402;42.004;23.088;2023-04-07T05:22:44;24.73;;;13.25;;
39728;SDS011;25402;42.004;23.088;2023-04-07T05:25:11;18.35;;;11.73;;
39728;SDS011;25402;42.004;23.088;2023-04-07T05:27:38;24.70;;;12.98;;
39728;SDS011;25402;42.004;23.088;2023-04-07T05:30:08;27.40;;;13.18;;
39728;SDS011;25402;42.004;23.088;2023-04-07T05:32:36;27.73;;;13.85;;
39728;SDS011;25402;42.004;23.088;2023-04-07T05:35:03;22.95;;;13.38;;
39728;SDS011;25402;42.004;23.088;2023-04-07T05:37:29;31.30;;;15.65;;
39728;SDS011;25402;42.004;23.088;2023-04-07T05:39:56;30.17;;;15.10;;
39728;SDS011;25402;42.004;23.088;2023-04-07T05:42:23;29.38;;;15.63;;
39728;SDS011;25402;42.004;23.088;2023-04-07T05:44:49;26.38;;;14.00;;
39728;SDS011;25402;42.004;23.088;2023-04-07T05:47:17;27.75;;;13.82;;
39728;SDS011;25402;42.004;23.088;2023-04-07T05:49:44;26.30;;;14.35;;
39728;SDS011;25402;42.004;23.088;2023-04-07T05:52:14;30.20;;;13.00;;
39728;SDS011;25402;42.004;23.088;2023-04-07T05:54:40;31.85;;;13.77;;
39728;SDS011;25402;42.004;23.088;2023-04-07T05:57:07;25.80;;;13.02;;
39728;SDS011;25402;42.004;23.088;2023-04-07T05:59:34;25.33;;;13.25;;
39728;SDS011;25402;42.004;23.088;2023-04-07T06:02:01;25.02;;;13.77;;
39728;SDS011;25402;42.004;23.088;2023-04-07T06:04:29;27.48;;;12.90;;
39728;SDS011;25402;42.004;23.088;2023-04-07T06:06:57;25.02;;;12.75;;
39728;SDS011;25402;42.004;23.088;2023-04-07T06:09:26;26.63;;;13.38;;
39728;SDS011;25402;42.004;23.088;2023-04-07T06:11:53;34.08;;;16.35;;
39728;SDS011;25402;42.004;23.088;2023-04-07T06:14:21;35.75;;;17.20;;
39728;SDS011;25402;42.004;23.088;2023-04-07T06:16:47;32.15;;;16.27;;
39728;SDS011;25402;42.004;23.088;2023-04-07T06:19:14;32.17;;;16.30;;
39728;SDS011;25402;42.004;23.088;2023-04-07T06:21:42;36.10;;;17.02;;
39728;SDS011;25402;42.004;23.088;2023-04-07T06:24:09;35.10;;;15.50;;
39728;SDS011;25402;42.004;23.088;2023-04-07T06:26:35;41.78;;;16.10;;
39728;SDS011;25402;42.004;23.088;2023-04-07T06:29:02;29.50;;;14.63;;
39728;SDS011;25402;42.004;23.088;2023-04-07T06:31:30;27.05;;;14.77;;
39728;SDS011;25402;42.004;23.088;2023-04-07T06:33:56;38.30;;;14.57;;
39728;SDS011;25402;42.004;23.088;2023-04-07T06:36:23;26.60;;;14.43;;
39728;SDS011;25402;42.004;23.088;2023-04-07T06:38:55;28.08;;;13.77;;
39728;SDS011;25402;42.004;23.088;2023-04-07T06:41:21;29.20;;;12.07;;
39728;SDS011;25402;42.004;23.088;2023-04-07T06:43:48;14.48;;;8.27;;
39728;SDS011;25402;42.004;23.088;2023-04-07T06:46:16;22.73;;;10.93;;
39728;SDS011;25402;42.004;23.088;2023-04-07T06:48:43;58.88;;;11.95;;
39728;SDS011;25402;42.004;23.088;2023-04-07T06:51:09;23.05;;;10.60;;
39728;SDS011;25402;42.004;23.088;2023-04-07T06:53:36;32.20;;;10.77;;
39728;SDS011;25402;42.004;23.088;2023-04-07T06:56:05;21.58;;;8.48;;
39728;SDS011;25402;42.004;23.088;2023-04-07T06:58:31;23.10;;;10.50;;
39728;SDS011;25402;42.004;23.088;2023-04-07T07:00:59;16.67;;;9.75;;
39728;SDS011;25402;42.004;23.088;2023-04-07T07:03:25;45.97;;;22.35;;
39728;SDS011;25402;42.004;23.088;2023-04-07T07:05:53;42.28;;;22.35;;
39728;SDS011;25402;42.004;23.088;2023-04-07T07:08:20;58.47;;;22.02;;
39728;SDS011;25402;42.004;23.088;2023-04-07T07:10:47;23.02;;;11.98;;
39728;SDS011;25402;42.004;23.088;2023-04-07T07:13:15;29.02;;;14.77;;
39728;SDS011;25402;42.004;23.088;2023-04-07T07:15:41;39.28;;;19.35;;
39728;SDS011;25402;42.004;23.088;2023-04-07T07:18:08;12.52;;;7.63;;
39728;SDS011;25402;42.004;23.088;2023-04-07T07:20:35;12.10;;;7.82;;
39728;SDS011;25402;42.004;23.088;2023-04-07T07:23:02;32.42;;;8.07;;
39728;SDS011;25402;42.004;23.088;2023-04-07T07:25:28;13.00;;;7.00;;
39728;SDS011;25402;42.004;23.088;2023-04-07T07:27:55;10.65;;;6.85;;
39728;SDS011;25402;42.004;23.088;2023-04-07T07:30:23;10.88;;;6.18;;
39728;SDS011;25402;42.004;23.088;2023-04-07T07:32:50;18.08;;;6.90;;
39728;SDS011;25402;42.004;23.088;2023-04-07T07:35:20;17.42;;;7.15;;
39728;SDS011;25402;42.004;23.088;2023-04-07T07:37:51;20.30;;;6.32;;
39728;SDS011;25402;42.004;23.088;2023-04-07T07:40:19;13.43;;;5.57;;
39728;SDS011;25402;42.004;23.088;2023-04-07T07:42:46;10.70;;;6.10;;
39728;SDS011;25402;42.004;23.088;2023-04-07T07:45:13;8.98;;;5.63;;
39728;SDS011;25402;42.004;23.088;2023-04-07T07:47:41;10.00;;;5.68;;
39728;SDS011;25402;42.004;23.088;2023-04-07T07:50:08;17.05;;;6.00;;
39728;SDS011;25402;42.004;23.088;2023-04-07T07:52:35;8.90;;;5.65;;
39728;SDS011;25402;42.004;23.088;2023-04-07T07:55:02;10.60;;;5.65;;
39728;SDS011;25402;42.004;23.088;2023-04-07T07:57:28;13.23;;;6.50;;
39728;SDS011;25402;42.004;23.088;2023-04-07T07:59:56;15.70;;;8.10;;
39728;SDS011;25402;42.004;23.088;2023-04-07T08:02:22;14.88;;;6.93;;
39728;SDS011;25402;42.004;23.088;2023-04-07T08:04:56;14.98;;;7.40;;
39728;SDS011;25402;42.004;23.088;2023-04-07T08:07:22;24.08;;;8.20;;
39728;SDS011;25402;42.004;23.088;2023-04-07T08:09:49;18.08;;;5.85;;
39728;SDS011;25402;42.004;23.088;2023-04-07T08:12:16;18.50;;;5.95;;
39728;SDS011;25402;42.004;23.088;2023-04-07T08:14:42;48.83;;;7.40;;
39728;SDS011;25402;42.004;23.088;2023-04-07T08:17:09;41.88;;;7.35;;
39728;SDS011;25402;42.004;23.088;2023-04-07T08:19:36;18.55;;;6.47;;
39728;SDS011;25402;42.004;23.088;2023-04-07T08:22:05;11.55;;;5.63;;
39728;SDS011;25402;42.004;23.088;2023-04-07T08:24:31;15.02;;;5.70;;
39728;SDS011;25402;42.004;23.088;2023-04-07T08:26:58;14.18;;;5.75;;
39728;SDS011;25402;42.004;23.088;2023-04-07T08:29:25;16.38;;;6.32;;
39728;SDS011;25402;42.004;23.088;2023-04-07T08:31:52;10.85;;;6.28;;
39728;SDS011;25402;42.004;23.088;2023-04-07T08:34:18;11.63;;;6.13;;
39728;SDS011;25402;42.004;23.088;2023-04-07T08:36:45;11.50;;;5.95;;
39728;SDS011;25402;42.004;23.088;2023-04-07T08:39:13;17.73;;;6.90;;
39728;SDS011;25402;42.004;23.088;2023-04-07T08:41:40;18.55;;;6.47;;
39728;SDS011;25402;42.004;23.088;2023-04-07T08:44:09;12.60;;;5.72;;
39728;SDS011;25402;42.004;23.088;2023-04-07T08:46:38;13.23;;;6.35;;
39728;SDS011;25402;42.004;23.088;2023-04-07T08:49:07;10.15;;;5.78;;
39728;SDS011;25402;42.004;23.088;2023-04-07T08:51:33;29.42;;;6.38;;
39728;SDS011;25402;42.004;23.088;2023-04-07T08:54:02;8.48;;;5.07;;
39728;SDS011;25402;42.004;23.088;2023-04-07T08:56:32;13.93;;;5.18;;
39728;SDS011;25402;42.004;23.088;2023-04-07T08:58:59;8.20;;;4.82;;
39728;SDS011;25402;42.004;23.088;2023-04-07T09:01:26;6.88;;;4.82;;
39728;SDS011;25402;42.004;23.088;2023-04-07T09:03:53;38.95;;;6.97;;
39728;SDS011;25402;42.004;23.088;2023-04-07T09:06:22;7.38;;;4.47;;
39728;SDS011;25402;42.004;23.088;2023-04-07T09:08:49;16.10;;;6.20;;
39728;SDS011;25402;42.004;23.088;2023-04-07T09:11:15;7.03;;;4.70;;
39728;SDS011;25402;42.004;23.088;2023-04-07T09:13:43;9.20;;;4.53;;
39728;SDS011;25402;42.004;23.088;2023-04-07T09:16:10;11.90;;;4.90;;
39728;SDS011;25402;42.004;23.088;2023-04-07T09:18:38;9.77;;;5.28;;
39728;SDS011;25402;42.004;23.088;2023-04-07T09:21:05;7.18;;;4.57;;
39728;SDS011;25402;42.004;23.088;2023-04-07T09:23:33;11.93;;;4.68;;
39728;SDS011;25402;42.004;23.088;2023-04-07T09:26:16;15.57;;;8.52;;
39728;SDS011;25402;42.004;23.088;2023-04-07T09:28:46;22.20;;;12.15;;
39728;SDS011;25402;42.004;23.088;2023-04-07T09:31:13;16.90;;;8.88;;
39728;SDS011;25402;42.004;23.088;2023-04-07T09:33:39;18.88;;;10.32;;
39728;SDS011;25402;42.004;23.088;2023-04-07T09:36:06;9.48;;;5.18;;
39728;SDS011;25402;42.004;23.088;2023-04-07T09:38:33;16.30;;;8.43;;
39728;SDS011;25402;42.004;23.088;2023-04-07T09:41:06;16.35;;;8.98;;
39728;SDS011;25402;42.004;23.088;2023-04-07T09:43:34;17.00;;;8.55;;
39728;SDS011;25402;42.004;23.088;2023-04-07T09:46:13;10.18;;;5.65;;
39728;SDS011;25402;42.004;23.088;2023-04-07T09:48:42;9.52;;;6.05;;
39728;SDS011;25402;42.004;23.088;2023-04-07T09:51:10;9.88;;;5.18;;
39728;SDS011;25402;42.004;23.088;2023-04-07T09:53:40;15.25;;;7.00;;
39728;SDS011;25402;42.004;23.088;2023-04-07T09:56:07;10.77;;;6.30;;
39728;SDS011;25402;42.004;23.088;2023-04-07T09:58:36;10.18;;;6.35;;
39728;SDS011;25402;42.004;23.088;2023-04-07T10:01:03;15.00;;;5.82;;
39728;SDS011;25402;42.004;23.088;2023-04-07T10:03:32;11.65;;;5.70;;
39728;SDS011;25402;42.004;23.088;2023-04-07T10:05:59;9.73;;;4.82;;
39728;SDS011;25402;42.004;23.088;2023-04-07T10:08:26;9.02;;;5.22;;
39728;SDS011;25402;42.004;23.088;2023-04-07T10:10:53;10.10;;;4.60;;
39728;SDS011;25402;42.004;23.088;2023-04-07T10:13:19;14.63;;;4.82;;
39728;SDS011;25402;42.004;23.088;2023-04-07T10:15:46;8.95;;;4.65;;
39728;SDS011;25402;42.004;23.088;2023-04-07T10:18:13;8.02;;;4.40;;
39728;SDS011;25402;42.004;23.088;2023-04-07T10:20:43;9.27;;;4.30;;
39728;SDS011;25402;42.004;23.088;2023-04-07T10:23:13;37.45;;;5.07;;
39728;SDS011;25402;42.004;23.088;2023-04-07T10:25:41;6.80;;;3.85;;
39728;SDS011;25402;42.004;23.088;2023-04-07T10:28:10;7.93;;;3.72;;
39728;SDS011;25402;42.004;23.088;2023-04-07T10:30:38;5.28;;;3.70;;
39728;SDS011;25402;42.004;23.088;2023-04-07T10:33:05;9.75;;;3.95;;
39728;SDS011;25402;42.004;23.088;2023-04-07T10:38:16;6.18;;;3.70;;
39728;SDS011;25402;42.004;23.088;2023-04-07T10:40:44;6.63;;;3.75;;
39728;SDS011;25402;42.004;23.088;2023-04-07T10:43:11;7.43;;;4.10;;
39728;SDS011;25402;42.004;23.088;2023-04-07T10:45:52;7.75;;;4.05;;
39728;SDS011;25402;42.004;23.088;2023-04-07T10:48:20;8.23;;;3.70;;
39728;SDS011;25402;42.004;23.088;2023-04-07T10:53:30;6.90;;;3.97;;
39728;SDS011;25402;42.004;23.088;2023-04-07T10:55:58;6.40;;;3.70;;
39728;SDS011;25402;42.004;23.088;2023-04-07T10:58:25;8.45;;;3.85;;
39728;SDS011;25402;42.004;23.088;2023-04-07T11:03:38;8.60;;;3.40;;
39728;SDS011;25402;42.004;23.088;2023-04-07T11:06:06;11.80;;;3.33;;
39728;SDS011;25402;42.004;23.088;2023-04-07T11:08:35;10.43;;;4.15;;
39728;SDS011;25402;42.004;23.088;2023-04-07T11:11:01;10.85;;;3.67;;
39728;SDS011;25402;42.004;23.088;2023-04-07T11:13:39;5.57;;;3.50;;
39728;SDS011;25402;42.004;23.088;2023-04-07T11:16:05;13.77;;;3.80;;
39728;SDS011;25402;42.004;23.088;2023-04-07T11:18:32;8.88;;;3.72;;
39728;SDS011;25402;42.004;23.088;2023-04-07T11:20:59;35.58;;;4.65;;
39728;SDS011;25402;42.004;23.088;2023-04-07T11:23:27;8.07;;;4.07;;
39728;SDS011;25402;42.004;23.088;2023-04-07T11:25:59;20.50;;;5.55;;
39728;SDS011;25402;42.004;23.088;2023-04-07T11:28:27;5.45;;;3.50;;
39728;SDS011;25402;42.004;23.088;2023-04-07T11:30:53;9.90;;;4.22;;
39728;SDS011;25402;42.004;23.088;2023-04-07T11:33:21;6.68;;;3.80;;
39728;SDS011;25402;42.004;23.088;2023-04-07T11:35:48;7.55;;;3.65;;
39728;SDS011;25402;42.004;23.088;2023-04-07T11:38:15;8.75;;;3.53;;
39728;SDS011;25402;42.004;23.088;2023-04-07T11:40:41;5.22;;;3.38;;
39728;SDS011;25402;42.004;23.088;2023-04-07T11:43:16;8.23;;;3.53;;
39728;SDS011;25402;42.004;23.088;2023-04-07T11:45:43;8.98;;;4.05;;
39728;SDS011;25402;42.004;23.088;2023-04-07T11:48:25;12.50;;;3.70;;
39728;SDS011;25402;42.004;23.088;2023-04-07T11:50:51;10.60;;;3.70;;
39728;SDS011;25402;42.004;23.088;2023-04-07T11:53:23;6.93;;;3.25;;
39728;SDS011;25402;42.004;23.088;2023-04-07T11:55:57;5.53;;;3.50;;
39728;SDS011;25402;42.004;23.088;2023-04-07T11:58:26;8.30;;;3.50;;
39728;SDS011;25402;42.004;23.088;2023-04-07T12:00:52;6.35;;;3.70;;
39728;SDS011;25402;42.004;23.088;2023-04-07T12:03:19;9.25;;;4.85;;
39728;SDS011;25402;42.004;23.088;2023-04-07T12:05:46;8.82;;;4.45;;
39728;SDS011;25402;42.004;23.088;2023-04-07T12:08:13;8.05;;;4.40;;
39728;SDS011;25402;42.004;23.088;2023-04-07T12:10:40;7.63;;;3.85;;
39728;SDS011;25402;42.004;23.088;2023-04-07T12:13:07;9.85;;;4.00;;
39728;SDS011;25402;42.004;23.088;2023-04-07T12:15:35;7.43;;;3.83;;
39728;SDS011;25402;42.004;23.088;2023-04-07T12:18:02;9.05;;;3.83;;
39728;SDS011;25402;42.004;23.088;2023-04-07T12:20:36;11.00;;;3.70;;
39728;SDS011;25402;42.004;23.088;2023-04-07T12:23:05;6.20;;;3.78;;
39728;SDS011;25402;42.004;23.088;2023-04-07T12:25:32;8.30;;;3.92;;
39728;SDS011;25402;42.004;23.088;2023-04-07T12:27:58;6.03;;;3.47;;
39728;SDS011;25402;42.004;23.088;2023-04-07T12:30:25;6.10;;;3.58;;
39728;SDS011;25402;42.004;23.088;2023-04-07T12:32:54;6.75;;;3.50;;
39728;SDS011;25402;42.004;23.088;2023-04-07T12:35:21;4.85;;;3.80;;
39728;SDS011;25402;42.004;23.088;2023-04-07T12:37:47;8.75;;;4.18;;
39728;SDS011;25402;42.004;23.088;2023-04-07T12:40:16;7.93;;;3.33;;
39728;SDS011;25402;42.004;23.088;2023-04-07T12:42:42;7.53;;;3.42;;
39728;SDS011;25402;42.004;23.088;2023-04-07T12:45:09;6.38;;;3.78;;
39728;SDS011;25402;42.004;23.088;2023-04-07T12:47:36;5.18;;;3.17;;
39728;SDS011;25402;42.004;23.088;2023-04-07T12:50:04;7.50;;;4.00;;
39728;SDS011;25402;42.004;23.088;2023-04-07T12:52:31;5.85;;;3.42;;
39728;SDS011;25402;42.004;23.088;2023-04-07T12:54:57;5.22;;;3.40;;
39728;SDS011;25402;42.004;23.088;2023-04-07T12:57:24;7.05;;;3.42;;
39728;SDS011;25402;42.004;23.088;2023-04-07T12:59:51;51.22;;;5.97;;
39728;SDS011;25402;42.004;23.088;2023-04-07T13:02:18;14.85;;;3.80;;
39728;SDS011;25402;42.004;23.088;2023-04-07T13:04:45;20.98;;;5.78;;
39728;SDS011;25402;42.004;23.088;2023-04-07T13:07:13;8.23;;;3.35;;
39728;SDS011;25402;42.004;23.088;2023-04-07T13:09:39;9.50;;;3.42;;
39728;SDS011;25402;42.004;23.088;2023-04-07T13:12:07;5.85;;;3.20;;
39728;SDS011;25402;42.004;23.088;2023-04-07T13:14:35;5.85;;;3.25;;
39728;SDS011;25402;42.004;23.088;2023-04-07T13:17:01;11.98;;;3.30;;
39728;SDS011;25402;42.004;23.088;2023-04-07T13:19:28;7.28;;;3.20;;
39728;SDS011;25402;42.004;23.088;2023-04-07T13:21:55;8.57;;;3.28;;
39728;SDS011;25402;42.004;23.088;2023-04-07T13:24:23;7.97;;;3.92;;
39728;SDS011;25402;42.004;23.088;2023-04-07T13:26:50;5.38;;;3.45;;
39728;SDS011;25402;42.004;23.088;2023-04-07T13:29:17;8.73;;;3.72;;
39728;SDS011;25402;42.004;23.088;2023-04-07T13:31:44;8.43;;;3.20;;
39728;SDS011;25402;42.004;23.088;2023-04-07T13:34:10;7.60;;;3.22;;
39728;SDS011;25402;42.004;23.088;2023-04-07T13:36:38;11.27;;;3.30;;
39728;SDS011;25402;42.004;23.088;2023-04-07T13:39:21;9.20;;;3.47;;
39728;SDS011;25402;42.004;23.088;2023-04-07T13:41:48;6.43;;;3.30;;
39728;SDS011;25402;42.004;23.088;2023-04-07T13:44:14;5.88;;;3.58;;
39728;SDS011;25402;42.004;23.088;2023-04-07T13:46:41;11.68;;;3.22;;
39728;SDS011;25402;42.004;23.088;2023-04-07T13:49:07;8.45;;;3.03;;
39728;SDS011;25402;42.004;23.088;2023-04-07T13:51:34;6.10;;;3.00;;
39728;SDS011;25402;42.004;23.088;2023-04-07T13:54:02;6.55;;;3.47;;
39728;SDS011;25402;42.004;23.088;2023-04-07T13:58:57;20.17;;;4.38;;
39728;SDS011;25402;42.004;23.088;2023-04-07T14:01:24;7.10;;;3.63;;
39728;SDS011;25402;42.004;23.088;2023-04-07T14:03:50;12.50;;;5.50;;
39728;SDS011;25402;42.004;23.088;2023-04-07T14:06:17;14.38;;;4.15;;
39728;SDS011;25402;42.004;23.088;2023-04-07T14:08:46;4.18;;;3.35;;
39728;SDS011;25402;42.004;23.088;2023-04-07T14:11:15;7.20;;;3.30;;
39728;SDS011;25402;42.004;23.088;2023-04-07T14:13:42;16.55;;;3.90;;
39728;SDS011;25402;42.004;23.088;2023-04-07T14:16:10;7.93;;;3.50;;
39728;SDS011;25402;42.004;23.088;2023-04-07T14:18:36;6.03;;;3.40;;
39728;SDS011;25402;42.004;23.088;2023-04-07T14:21:03;6.05;;;3.08;;
39728;SDS011;25402;42.004;23.088;2023-04-07T14:23:30;5.03;;;3.60;;
39728;SDS011;25402;42.004;23.088;2023-04-07T14:25:57;6.75;;;3.55;;
39728;SDS011;25402;42.004;23.088;2023-04-07T14:28:25;8.82;;;3.40;;
39728;SDS011;25402;42.004;23.088;2023-04-07T14:30:51;6.65;;;3.78;;
39728;SDS011;25402;42.004;23.088;2023-04-07T14:33:20;4.72;;;3.60;;